createdAt,value
2022-10-17T00:01:35.064Z,93605.25
2022-10-17T00:04:17.902Z,93605.13
2022-10-17T00:07:00.748Z,93602.53
2022-10-17T00:09:45.347Z,93603.97
2022-10-17T00:12:28.224Z,93597.16
2022-10-17T00:15:16.762Z,93604.16
2022-10-17T00:18:00.054Z,93601.69
2022-10-17T00:20:42.881Z,93601.81
2022-10-17T00:23:27.509Z,93601.47
2022-10-17T00:26:12.005Z,93599.31
2022-10-17T00:28:55.315Z,93598.34
2022-10-17T00:31:38.255Z,93600.94
2022-10-17T00:34:21.053Z,93602.03
2022-10-17T00:37:03.929Z,93602.97
2022-10-17T00:39:46.765Z,93603.44
2022-10-17T00:42:31.279Z,93600.31
2022-10-17T00:45:20.110Z,93597.91
2022-10-17T00:48:08.534Z,93590.72
2022-10-17T00:50:51.806Z,93595.13
2022-10-17T00:53:36.401Z,93592.34
2022-10-17T00:56:20.561Z,93599.00
2022-10-17T01:02:01.294Z,93601.25
2022-10-17T01:04:47.681Z,93603.47
2022-10-17T01:07:34.650Z,93606.56
2022-10-17T01:13:14.739Z,93601.00
2022-10-17T01:16:10.501Z,93605.72
2022-10-17T01:19:02.116Z,93593.72
2022-10-17T01:21:51.799Z,93604.75
2022-10-17T01:24:50.044Z,93606.06
2022-10-17T01:28:00.402Z,93606.44
2022-10-17T01:31:07.741Z,93603.84
2022-10-17T01:34:02.381Z,93603.53
2022-10-17T01:36:51.675Z,93601.25
2022-10-17T01:39:45.350Z,93602.03
2022-10-17T01:42:37.703Z,93608.41
2022-10-17T01:45:25.526Z,93594.06
2022-10-17T01:48:14.620Z,93594.88
2022-10-17T01:51:02.680Z,93593.28
2022-10-17T01:53:51.081Z,93595.19
2022-10-17T01:56:36.203Z,93593.19
2022-10-17T01:59:23.422Z,93590.44
2022-10-17T02:02:07.952Z,93588.63
2022-10-17T02:04:53.931Z,93588.47
2022-10-17T02:07:36.923Z,93591.88
2022-10-17T02:10:26.849Z,93584.91
2022-10-17T02:13:17.767Z,93591.88
2022-10-17T02:16:13.375Z,93590.72
2022-10-17T02:19:35.188Z,93586.66
2022-10-17T02:22:31.524Z,93590.25
2022-10-17T02:25:22.831Z,93588.63
2022-10-17T02:28:20.717Z,93589.59
2022-10-17T02:31:08.078Z,93582.97
2022-10-17T02:33:56.507Z,93591.75
2022-10-17T02:36:43.720Z,93584.59
2022-10-17T02:39:30.106Z,93587.38
2022-10-17T02:42:15.241Z,93588.38
2022-10-17T02:45:01.465Z,93585.78
2022-10-17T02:47:55.172Z,93588.53
2022-10-17T02:50:50.250Z,93584.50
2022-10-17T02:53:38.904Z,93589.06
2022-10-17T02:56:24.123Z,93598.28
2022-10-17T02:59:11.296Z,93595.88
2022-10-17T03:01:54.788Z,93592.47
2022-10-17T03:04:38.256Z,93594.88
2022-10-17T03:07:21.200Z,93594.88
2022-10-17T03:10:04.715Z,93597.31
2022-10-17T03:12:49.529Z,93598.28
2022-10-17T03:15:32.408Z,93601.06
2022-10-17T03:18:15.743Z,93595.06
2022-10-17T03:20:58.760Z,93591.66
2022-10-17T03:23:41.756Z,93586.44
2022-10-17T03:26:24.630Z,93586.44
2022-10-17T03:29:09.279Z,93582.88
2022-10-17T03:31:52.169Z,93597.47
2022-10-17T03:34:35.986Z,93591.31
2022-10-17T03:37:18.968Z,93592.94
2022-10-17T03:40:01.921Z,93592.94
2022-10-17T03:42:45.363Z,93595.69
2022-10-17T03:45:29.703Z,93597.66
2022-10-17T03:48:12.859Z,93603.03
2022-10-17T03:51:02.295Z,93601.59
2022-10-17T03:53:46.168Z,93607.91
2022-10-17T03:56:29.558Z,93605.69
2022-10-17T03:59:18.133Z,93605.22
2022-10-17T04:02:10.585Z,93604.94
2022-10-17T04:04:53.447Z,93609.50
2022-10-17T04:07:37.285Z,93605.28
2022-10-17T04:10:20.985Z,93606.41
2022-10-17T04:13:03.934Z,93603.81
2022-10-17T04:15:55.347Z,93612.63
2022-10-17T04:18:39.902Z,93610.16
2022-10-17T04:21:24.641Z,93617.81
2022-10-17T04:24:08.337Z,93608.22
2022-10-17T04:27:04.996Z,93612.44
2022-10-17T04:29:51.677Z,93608.84
2022-10-17T04:32:40.192Z,93615.66
2022-10-17T04:35:30.205Z,93615.66
2022-10-17T04:38:18.461Z,93611.25
2022-10-17T04:41:03.528Z,93617.44
2022-10-17T04:43:50.173Z,93617.28
2022-10-17T04:46:35.820Z,93614.84
2022-10-17T04:49:18.794Z,93612.44
2022-10-17T04:52:06.372Z,93611.78
2022-10-17T04:55:18.868Z,93614.56
2022-10-17T04:58:01.826Z,93610.16
2022-10-17T05:00:46.316Z,93614.56
2022-10-17T05:03:37.437Z,93616.97
2022-10-17T05:06:22.548Z,93616.78
2022-10-17T05:09:24.140Z,93612.09
2022-10-17T05:12:09.570Z,93615.47
2022-10-17T05:14:55.808Z,93616.13
2022-10-17T05:17:41.486Z,93612.53
2022-10-17T05:20:24.834Z,93618.56
2022-10-17T05:23:07.754Z,93618.56
2022-10-17T05:25:57.635Z,93620.53
2022-10-17T05:28:41.101Z,93622.28
2022-10-17T05:31:24.706Z,93626.69
2022-10-17T05:34:09.149Z,93624.25
2022-10-17T05:36:54.735Z,93625.41
2022-10-17T05:39:39.938Z,93630.59
2022-10-17T05:42:24.391Z,93629.97
2022-10-17T05:45:08.318Z,93634.38
2022-10-17T05:47:51.970Z,93634.72
2022-10-17T05:50:35.091Z,93634.06
2022-10-17T05:53:26.278Z,93638.78
2022-10-17T05:56:12.774Z,93641.72
2022-10-17T05:59:00.667Z,93646.28
2022-10-17T06:01:58.895Z,93649.84
2022-10-17T06:04:45.947Z,93653.25
2022-10-17T06:07:30.637Z,93659.09
2022-10-17T06:10:16.261Z,93656.47
2022-10-17T06:12:59.264Z,93655.69
2022-10-17T06:15:43.922Z,93659.25
2022-10-17T06:18:26.997Z,93658.44
2022-10-17T06:21:12.643Z,93666.06
2022-10-17T06:24:00.442Z,93668.69
2022-10-17T06:26:51.854Z,93670.28
2022-10-17T06:29:37.033Z,93666.63
2022-10-17T06:32:21.975Z,93677.63
2022-10-17T06:35:07.415Z,93679.72
2022-10-17T06:37:50.326Z,93679.53
2022-10-17T06:40:33.888Z,93687.97
2022-10-17T06:43:16.812Z,93690.56
2022-10-17T06:46:13.815Z,93698.00
2022-10-17T06:49:11.984Z,93700.09
2022-10-17T06:52:06.299Z,93697.97
2022-10-17T06:54:57.849Z,93706.25
2022-10-17T06:57:56.109Z,93703.13
2022-10-17T07:01:01.309Z,93706.03
2022-10-17T07:03:44.685Z,93711.84
2022-10-17T07:06:29.591Z,93716.06
2022-10-17T07:09:15.324Z,93720.94
2022-10-17T07:11:58.543Z,93713.59
2022-10-17T07:14:41.914Z,93713.09
2022-10-17T07:17:24.811Z,93716.81
2022-10-17T07:20:08.913Z,93722.31
2022-10-17T07:22:55.288Z,93726.81
2022-10-17T07:25:40.167Z,93720.94
2022-10-17T07:28:25.037Z,93715.03
2022-10-17T07:31:09.521Z,93722.13
2022-10-17T07:33:52.840Z,93719.34
2022-10-17T07:36:36.775Z,93721.63
2022-10-17T07:39:23.070Z,93729.06
2022-10-17T07:42:07.484Z,93724.31
2022-10-17T07:44:51.159Z,93727.38
2022-10-17T07:47:36.210Z,93725.50
2022-10-17T07:50:21.573Z,93728.84
2022-10-17T07:53:04.435Z,93732.00
2022-10-17T07:55:49.715Z,93732.25
2022-10-17T07:58:32.667Z,93725.16
2022-10-17T08:01:16.121Z,93735.47
2022-10-17T08:03:59.229Z,93724.00
2022-10-17T08:06:42.053Z,93723.22
2022-10-17T08:09:24.910Z,93725.34
2022-10-17T08:12:09.221Z,93731.94
2022-10-17T08:14:52.110Z,93725.81
2022-10-17T08:17:35.642Z,93728.16
2022-10-17T08:20:18.953Z,93735.06
2022-10-17T08:23:01.822Z,93725.88
2022-10-17T08:25:44.649Z,93732.88
2022-10-17T08:28:29.542Z,93725.81
2022-10-17T08:31:14.618Z,93728.34
2022-10-17T08:33:57.483Z,93727.16
2022-10-17T08:36:40.326Z,93726.47
2022-10-17T08:39:23.490Z,93728.41
2022-10-17T08:42:26.804Z,93735.72
2022-10-17T08:45:17.826Z,93731.00
2022-10-17T08:48:03.133Z,93727.88
2022-10-17T08:50:51.209Z,93732.66
2022-10-17T08:53:37.455Z,93735.59
2022-10-17T08:56:44.145Z,93735.28
2022-10-17T08:59:27.695Z,93737.16
2022-10-17T09:02:28.435Z,93735.97
2022-10-17T09:05:41.879Z,93740.47
2022-10-17T09:08:37.680Z,93739.75
2022-10-17T09:11:38.657Z,93731.91
2022-10-17T09:15:00.304Z,93733.75
2022-10-17T09:17:52.539Z,93731.34
2022-10-17T09:20:40.322Z,93727.72
2022-10-17T09:23:27.121Z,93732.16
2022-10-17T09:26:12.620Z,93730.31
2022-10-17T09:28:59.333Z,93728.53
2022-10-17T09:31:48.313Z,93721.84
2022-10-17T09:34:33.849Z,93734.09
2022-10-17T09:37:18.412Z,93731.66
2022-10-17T09:40:01.475Z,93739.53
2022-10-17T09:42:46.797Z,93736.50
2022-10-17T09:45:37.657Z,93740.88
2022-10-17T09:48:27.597Z,93740.19
2022-10-17T09:51:22.179Z,93744.53
2022-10-17T09:54:20.646Z,93742.75
2022-10-17T09:57:06.450Z,93741.53
2022-10-17T09:59:58.351Z,93744.72
2022-10-17T10:02:41.223Z,93745.53
2022-10-17T10:05:24.108Z,93752.00
2022-10-17T10:08:16.552Z,93749.91
2022-10-17T10:11:03.429Z,93754.56
2022-10-17T10:13:50.056Z,93753.25
2022-10-17T10:16:34.326Z,93752.78
2022-10-17T10:19:22.855Z,93743.53
2022-10-17T10:22:07.600Z,93741.59
2022-10-17T10:25:07.438Z,93748.38
2022-10-17T10:27:50.335Z,93743.53
2022-10-17T10:30:36.223Z,93739.81
2022-10-17T10:33:24.500Z,93733.47
2022-10-17T10:36:09.148Z,93742.19
2022-10-17T10:38:54.395Z,93733.59
2022-10-17T10:41:49.247Z,93734.50
2022-10-17T10:44:34.097Z,93735.19
2022-10-17T10:47:21.612Z,93731.84
2022-10-17T10:50:18.525Z,93729.38
2022-10-17T10:53:17.018Z,93727.44
2022-10-17T10:56:05.143Z,93731.25
2022-10-17T10:58:55.661Z,93733.72
2022-10-17T11:01:47.247Z,93729.47
2022-10-17T11:04:37.367Z,93731.00
2022-10-17T11:07:24.835Z,93734.16
2022-10-17T11:10:15.232Z,93734.38
2022-10-17T11:13:04.773Z,93734.72
2022-10-17T11:15:53.341Z,93745.06
2022-10-17T11:18:43.895Z,93744.59
2022-10-17T11:21:38.170Z,93748.44
2022-10-17T11:24:25.257Z,93740.94
2022-10-17T11:27:09.356Z,93744.72
2022-10-17T11:29:52.735Z,93735.22
2022-10-17T11:32:41.594Z,93742.81
2022-10-17T11:35:28.331Z,93737.66
2022-10-17T11:38:17.874Z,93738.94
2022-10-17T11:41:01.357Z,93737.25
2022-10-17T11:43:51.547Z,93735.00
2022-10-17T11:46:36.982Z,93744.41
2022-10-17T11:49:25.117Z,93734.03
2022-10-17T11:52:43.954Z,93742.78
2022-10-17T11:55:26.626Z,93735.97
2022-10-17T11:58:23.518Z,93737.03
2022-10-17T12:01:16.795Z,93739.59
2022-10-17T12:04:18.628Z,93732.66
2022-10-17T12:07:16.719Z,93734.97
2022-10-17T12:10:08.446Z,93731.84
2022-10-17T12:12:51.433Z,93734.41
2022-10-17T12:15:34.278Z,93728.66
2022-10-17T12:18:18.765Z,93728.22
2022-10-17T12:21:02.127Z,93733.63
2022-10-17T12:23:53.503Z,93733.00
2022-10-17T12:26:36.363Z,93736.63
2022-10-17T12:29:29.635Z,93736.38
2022-10-17T12:32:13.440Z,93737.97
2022-10-17T12:34:58.173Z,93737.91
2022-10-17T12:38:17.134Z,93741.16
2022-10-17T12:41:06.542Z,93739.53
2022-10-17T12:46:49.206Z,93740.22
2022-10-17T12:49:41.309Z,93742.19
2022-10-17T12:52:26.898Z,93744.97
2022-10-17T12:55:14.977Z,93748.59
2022-10-17T12:58:03.781Z,93749.56
2022-10-17T13:03:57.754Z,93740.47
2022-10-17T13:06:45.893Z,93739.78
2022-10-17T13:09:31.009Z,93737.94
2022-10-17T13:12:16.560Z,93741.38
2022-10-17T13:15:01.208Z,93736.91
2022-10-17T13:17:44.519Z,93743.00
2022-10-17T13:20:31.715Z,93733.50
2022-10-17T13:23:23.836Z,93732.09
2022-10-17T13:26:14.121Z,93739.00
2022-10-17T13:29:04.830Z,93733.41
2022-10-17T13:31:54.214Z,93735.13
2022-10-17T13:34:37.084Z,93741.38
2022-10-17T13:37:20.114Z,93739.00
2022-10-17T13:40:16.257Z,93728.97
2022-10-17T13:43:02.148Z,93737.75
2022-10-17T13:45:49.130Z,93735.56
2022-10-17T13:48:36.405Z,93732.34
2022-10-17T13:51:19.529Z,93728.69
2022-10-17T13:54:02.402Z,93732.34
2022-10-17T13:56:45.286Z,93725.56
2022-10-17T13:59:33.416Z,93732.13
2022-10-17T14:02:18.143Z,93720.91
2022-10-17T14:05:19.490Z,93731.19
2022-10-17T14:08:15.067Z,93728.03
2022-10-17T14:11:01.477Z,93726.16
2022-10-17T14:13:49.297Z,93726.84
2022-10-17T14:16:38.357Z,93735.44
2022-10-17T14:19:27.066Z,93727.69
2022-10-17T14:22:25.754Z,93736.88
2022-10-17T14:25:30.163Z,93734.28
2022-10-17T14:28:16.909Z,93734.72
2022-10-17T14:31:14.024Z,93741.97
2022-10-17T14:33:57.576Z,93730.69
2022-10-17T14:36:42.909Z,93722.47
2022-10-17T14:39:29.116Z,93728.97
2022-10-17T14:42:20.395Z,93731.19
2022-10-17T14:45:09.468Z,93732.03
2022-10-17T14:47:53.273Z,93728.44
2022-10-17T14:50:36.387Z,93737.13
2022-10-17T14:53:22.090Z,93735.94
2022-10-17T14:56:23.263Z,93740.00
2022-10-17T14:59:11.120Z,93745.44
2022-10-17T15:01:54.875Z,93740.59
2022-10-17T15:04:37.756Z,93749.06
2022-10-17T15:07:22.175Z,93751.47
2022-10-17T15:10:06.028Z,93750.47
2022-10-17T15:12:58.829Z,93759.13
2022-10-17T15:15:43.804Z,93763.78
2022-10-17T15:18:26.621Z,93765.22
2022-10-17T15:21:33.686Z,93780.72
2022-10-17T15:24:16.648Z,93774.28
2022-10-17T15:26:59.528Z,93777.69
2022-10-17T15:29:43.817Z,93779.50
2022-10-17T15:32:27.164Z,93776.06
2022-10-17T15:35:10.571Z,93779.28
2022-10-17T15:37:54.198Z,93780.50
2022-10-17T15:40:37.069Z,93777.66
2022-10-17T15:43:20.238Z,93779.47
2022-10-17T15:46:05.091Z,93782.25
2022-10-17T15:48:48.312Z,93785.22
2022-10-17T15:51:31.327Z,93784.31
2022-10-17T15:54:14.241Z,93783.66
2022-10-17T15:56:57.982Z,93780.41
2022-10-17T15:59:40.862Z,93782.34
2022-10-17T16:02:25.701Z,93784.25
2022-10-17T16:05:23.664Z,93790.19
2022-10-17T16:08:06.723Z,93784.50
2022-10-17T16:10:50.343Z,93783.19
2022-10-17T16:13:33.396Z,93790.56
2022-10-17T16:16:16.216Z,93786.88
2022-10-17T16:19:01.514Z,93797.94
2022-10-17T16:21:45.855Z,93798.00
2022-10-17T16:24:28.834Z,93800.91
2022-10-17T16:27:11.676Z,93789.78
2022-10-17T16:29:54.605Z,93796.50
2022-10-17T16:32:37.490Z,93805.19
2022-10-17T16:35:25.846Z,93811.81
2022-10-17T16:38:08.929Z,93800.38
2022-10-17T16:40:52.197Z,93815.22
2022-10-17T16:43:36.524Z,93818.66
2022-10-17T16:46:20.765Z,93814.50
2022-10-17T16:49:04.934Z,93816.22
2022-10-17T16:51:49.177Z,93822.28
2022-10-17T16:54:32.069Z,93824.94
2022-10-17T16:57:15.023Z,93821.25
2022-10-17T16:59:57.951Z,93826.72
2022-10-17T17:02:41.074Z,93835.41
2022-10-17T17:05:23.980Z,93835.28
2022-10-17T17:08:11.805Z,93829.78
2022-10-17T17:10:55.579Z,93842.16
2022-10-17T17:13:38.927Z,93837.78
2022-10-17T17:16:23.619Z,93839.22
2022-10-17T17:19:08.827Z,93847.88
2022-10-17T17:21:51.714Z,93844.28
2022-10-17T17:24:35.923Z,93840.06
2022-10-17T17:27:20.514Z,93834.84
2022-10-17T17:30:03.354Z,93833.69
2022-10-17T17:32:46.268Z,93833.69
2022-10-17T17:35:29.299Z,93828.81
2022-10-17T17:38:12.170Z,93836.81
2022-10-17T17:40:56.391Z,93834.38
2022-10-17T17:43:39.291Z,93839.75
2022-10-17T17:46:23.070Z,93838.97
2022-10-17T17:49:05.914Z,93842.53
2022-10-17T17:51:48.744Z,93841.72
2022-10-17T17:54:31.890Z,93843.03
2022-10-17T17:57:16.093Z,93850.41
2022-10-17T17:59:59.228Z,93842.13
2022-10-17T18:02:44.348Z,93838.91
2022-10-17T18:05:27.822Z,93837.78
2022-10-17T18:08:10.692Z,93841.38
2022-10-17T18:10:56.411Z,93843.34
2022-10-17T18:13:40.756Z,93844.88
2022-10-17T18:16:23.918Z,93837.59
2022-10-17T18:19:08.957Z,93837.78
2022-10-17T18:21:51.867Z,93840.38
2022-10-17T18:24:34.806Z,93836.00
2022-10-17T18:27:17.960Z,93843.50
2022-10-17T18:30:02.164Z,93843.84
2022-10-17T18:32:45.151Z,93842.06
2022-10-17T18:35:28.000Z,93842.84
2022-10-17T18:38:11.001Z,93844.66
2022-10-17T18:41:03.619Z,93843.03
2022-10-17T18:43:47.901Z,93842.41
2022-10-17T18:46:40.874Z,93846.94
2022-10-17T18:49:25.042Z,93845.50
2022-10-17T18:52:07.891Z,93847.00
2022-10-17T18:54:50.720Z,93851.72
2022-10-17T18:57:33.779Z,93855.63
2022-10-17T19:00:17.364Z,93852.41
2022-10-17T19:03:04.165Z,93849.16
2022-10-17T19:05:47.568Z,93848.53
2022-10-17T19:08:30.616Z,93853.06
2022-10-17T19:11:16.058Z,93851.13
2022-10-17T19:14:00.687Z,93851.13
2022-10-17T19:16:45.514Z,93849.69
2022-10-17T19:19:31.186Z,93852.63
2022-10-17T19:22:18.854Z,93852.94
2022-10-17T19:25:02.675Z,93858.50
2022-10-17T19:27:47.509Z,93850.53
2022-10-17T19:30:30.740Z,93849.59
2022-10-17T19:33:13.560Z,93845.06
2022-10-17T19:35:58.866Z,93847.00
2022-10-17T19:38:41.760Z,93842.16
2022-10-17T19:41:24.904Z,93856.13
2022-10-17T19:44:07.799Z,93856.59
2022-10-17T19:46:50.671Z,93857.75
2022-10-17T19:49:33.562Z,93861.31
2022-10-17T19:52:17.764Z,93853.84
2022-10-17T19:55:00.648Z,93854.03
2022-10-17T19:57:43.533Z,93859.06
2022-10-17T20:00:29.271Z,93854.84
2022-10-17T20:03:12.101Z,93848.00
2022-10-17T20:05:55.264Z,93854.22
2022-10-17T20:08:41.092Z,93850.13
2022-10-17T20:11:26.149Z,93854.53
2022-10-17T20:14:09.342Z,93862.16
2022-10-17T20:16:53.477Z,93857.28
2022-10-17T20:19:36.396Z,93861.69
2022-10-17T20:22:19.335Z,93862.81
2022-10-17T20:25:03.555Z,93864.59
2022-10-17T20:27:46.434Z,93867.47
2022-10-17T20:30:29.294Z,93867.81
2022-10-17T20:33:13.842Z,93868.78
2022-10-17T20:35:56.709Z,93869.13
2022-10-17T20:38:40.114Z,93864.91
2022-10-17T20:41:24.861Z,93869.94
2022-10-17T20:44:07.928Z,93869.78
2022-10-17T20:47:01.321Z,93866.50
2022-10-17T20:49:45.701Z,93859.53
2022-10-17T20:52:28.576Z,93853.03
2022-10-17T20:55:11.483Z,93862.28
2022-10-17T20:57:55.767Z,93859.38
2022-10-17T21:00:39.338Z,93858.72
2022-10-17T21:03:22.147Z,93852.25
2022-10-17T21:06:05.127Z,93861.34
2022-10-17T21:08:48.541Z,93859.41
2022-10-17T21:11:31.900Z,93864.59
2022-10-17T21:14:16.747Z,93861.81
2022-10-17T21:17:04.503Z,93860.03
2022-10-17T21:19:48.819Z,93861.50
2022-10-17T21:22:32.013Z,93854.50
2022-10-17T21:25:15.222Z,93850.94
2022-10-17T21:27:58.085Z,93857.75
2022-10-17T21:30:42.333Z,93857.75
2022-10-17T21:33:25.159Z,93863.59
2022-10-17T21:36:09.378Z,93865.22
2022-10-17T21:38:54.383Z,93872.03
2022-10-17T21:41:37.271Z,93864.25
2022-10-17T21:44:22.154Z,93866.03
2022-10-17T21:47:06.547Z,93868.63
2022-10-17T21:49:49.388Z,93861.00
2022-10-17T21:52:32.516Z,93859.56
2022-10-17T21:55:15.773Z,93868.31
2022-10-17T21:57:58.642Z,93859.22
2022-10-17T22:00:41.466Z,93865.69
2022-10-17T22:03:25.727Z,93867.66
2022-10-17T22:06:37.561Z,93864.41
2022-10-17T22:09:15.778Z,93865.53
2022-10-17T22:11:58.632Z,93858.06
2022-10-17T22:14:41.490Z,93864.09
2022-10-17T22:17:24.409Z,93854.69
2022-10-17T22:20:09.580Z,93859.88
2022-10-17T22:22:52.456Z,93863.56
2022-10-17T22:25:35.550Z,93858.56
2022-10-17T22:28:18.371Z,93857.91
2022-10-17T22:31:01.370Z,93866.81
2022-10-17T22:33:44.513Z,93858.38
2022-10-17T22:36:29.263Z,93853.50
2022-10-17T22:39:12.315Z,93855.31
2022-10-17T22:41:55.152Z,93860.50
2022-10-17T22:44:38.044Z,93866.78
2022-10-17T22:47:20.928Z,93864.53
2022-10-17T22:50:03.883Z,93866.78
2022-10-17T22:52:48.129Z,93867.28
2022-10-17T22:55:30.998Z,93865.97
2022-10-17T22:58:13.852Z,93858.66
2022-10-17T23:00:57.106Z,93855.56
2022-10-17T23:03:39.961Z,93861.22
2022-10-17T23:06:23.591Z,93851.81
2022-10-17T23:09:07.840Z,93853.09
2022-10-17T23:11:50.675Z,93844.84
2022-10-17T23:14:33.686Z,93843.38
2022-10-17T23:17:16.728Z,93840.94
2022-10-17T23:19:59.612Z,93846.28
2022-10-17T23:22:42.491Z,93848.97
2022-10-17T23:25:27.178Z,93844.44
2022-10-17T23:28:10.593Z,93850.41
2022-10-17T23:30:53.488Z,93837.75
2022-10-17T23:33:36.294Z,93841.31
2022-10-17T23:36:21.010Z,93841.13
2022-10-17T23:39:03.738Z,93840.47
2022-10-17T23:41:47.935Z,93840.66
2022-10-17T23:44:30.814Z,93830.88
2022-10-17T23:47:13.706Z,93834.44
2022-10-17T23:49:56.518Z,93837.19
2022-10-17T23:52:39.486Z,93839.78
2022-10-17T23:55:22.321Z,93838.00
2022-10-17T23:58:06.547Z,93840.09
